Mount Moriah, Missouri
Current Conditions -  °F | °C
As of 11:53 PM on Wednesday 17 Dec 2014 (Local Time) from KLWD Reporting Station
Overcast Overcast  
Wind Chill: 19°   Ceiling: 8500
Heat Index: 26°   Visibility: 10mi
Dew Point: 18°   Wind: 6mph
Humidity: 71%   Direction: 70°ENE
Pressure: 30.27"   Gusts: NA
Location:  40.33°N, 93.8°W
Report Text: KLWD 180553Z AUTO 07005KT 10SM OVC085 M03/M08 A3027 RMK AO2 SLP266 T10331078 11022 21033 410171089 56002
Loading
Personal Weather Stations






























Interactive Weather Map New forecast layout! Learn more

10-Day Weather Forecast

Advertisements
Track Severe Weather on mobile